Time;durP1;ratioP1;P1;durP2;ratioP2;P2;SDS_P1;SDS_P2;PMS_P1;PMS_P2;Temp;Humidity;BMP_temperature;BMP_pressure;BME280_temperature;BME280_humidity;BME280_pressure;Samples;Min_cycle;Max_cycle;Signal;HPM_P1;HPM_P2
2020/12/28 00:00:18;;;;;;;0.70;0.70;;;7.30;79.20;;;;;;5004722;28;20190;-90
2020/12/28 00:02:47;;;;;;;1.23;0.90;;;7.30;79.10;;;;;;5005604;28;20183;-90
2020/12/28 00:05:13;;;;;;;1.10;1.10;;;7.20;79.40;;;;;;5006293;28;20179;-90
2020/12/28 00:07:39;;;;;;;1.17;0.90;;;7.30;78.40;;;;;;5006169;28;20186;-90
2020/12/28 00:10:10;;;;;;;0.93;0.93;;;7.30;78.20;;;;;;5005172;28;20261;-90
2020/12/28 00:12:49;;;;;;;0.60;0.60;;;7.30;77.30;;;;;;5005225;28;20206;-89
2020/12/28 00:15:20;;;;;;;1.23;1.13;;;7.30;77.20;;;;;;5004621;28;20182;-89
2020/12/28 00:17:57;;;;;;;1.27;1.00;;;7.20;78.30;;;;;;5003944;28;20217;-89
2020/12/28 00:20:26;;;;;;;0.80;0.80;;;7.30;77.50;;;;;;5003137;28;20192;-90
2020/12/28 00:22:54;;;;;;;0.73;0.60;;;7.30;77.90;;;;;;5005291;28;20190;-91
2020/12/28 00:25:24;;;;;;;1.10;0.90;;;7.20;79.50;;;;;;5004690;28;20179;-89
2020/12/28 00:27:51;;;;;;;0.87;0.87;;;7.20;77.70;;;;;;5002786;28;20199;-89
2020/12/28 00:30:17;;;;;;;0.83;0.83;;;7.10;79.10;;;;;;5004156;28;20182;-90
2020/12/28 00:32:43;;;;;;;0.87;0.87;;;7.20;77.70;;;;;;5003414;28;20195;-90
2020/12/28 00:35:10;;;;;;;0.70;0.70;;;7.20;79.10;;;;;;5009775;28;20190;-90
2020/12/28 00:37:36;;;;;;;0.90;0.90;;;7.10;80.20;;;;;;5023730;28;20593;-90
2020/12/28 00:40:02;;;;;;;1.00;1.00;;;7.00;80.40;;;;;;5023413;28;20185;-89
2020/12/28 00:42:37;;;;;;;0.93;0.93;;;6.90;81.20;;;;;;5023184;28;20229;-89
2020/12/28 00:45:08;;;;;;;0.70;0.70;;;6.90;81.80;;;;;;5021749;28;20185;-90
2020/12/28 00:47:34;;;;;;;1.10;1.00;;;6.90;81.90;;;;;;5023160;28;20177;-90
2020/12/28 00:50:00;;;;;;;0.90;0.90;;;6.90;82.10;;;;;;5025434;28;20213;-90
2020/12/28 00:52:29;;;;;;;1.03;1.03;;;6.90;82.50;;;;;;5025332;28;20194;-90
2020/12/28 00:54:54;;;;;;;1.17;0.90;;;6.90;83.10;;;;;;5025736;28;20201;-89
2020/12/28 00:57:20;;;;;;;0.80;0.80;;;6.80;84.20;;;;;;5009706;28;20185;-89
2020/12/28 00:59:45;;;;;;;1.57;0.90;;;6.80;83.90;;;;;;5023920;28;20240;-90
2020/12/28 01:02:11;;;;;;;0.93;0.80;;;6.80;84.00;;;;;;5024239;28;20273;-90
2020/12/28 01:04:45;;;;;;;1.00;1.00;;;6.70;84.80;;;;;;5020107;28;20194;-89
2020/12/28 01:07:10;;;;;;;0.80;0.80;;;6.70;86.20;;;;;;5004233;28;20201;-90
2020/12/28 01:09:36;;;;;;;1.63;0.87;;;6.80;84.20;;;;;;4990006;28;20214;-89
2020/12/28 01:12:02;;;;;;;1.00;1.00;;;6.70;85.10;;;;;;5005400;28;20186;-89
2020/12/28 01:14:27;;;;;;;0.80;0.80;;;6.70;85.30;;;;;;5005702;28;20190;-89
2020/12/28 01:16:53;;;;;;;0.93;0.93;;;6.70;84.40;;;;;;5006168;28;20190;-89
2020/12/28 01:19:22;;;;;;;1.37;1.00;;;6.60;85.60;;;;;;5006966;28;20713;-88
2020/12/28 01:21:48;;;;;;;1.27;1.03;;;6.70;84.80;;;;;;5007639;28;20233;-89
2020/12/28 01:24:13;;;;;;;1.20;1.10;;;6.70;84.50;;;;;;5007798;28;20539;-90
2020/12/28 01:26:39;;;;;;;1.00;1.00;;;6.70;84.80;;;;;;5007658;28;20301;-88
2020/12/28 01:29:05;;;;;;;0.90;0.90;;;6.70;84.80;;;;;;5006558;28;20202;-89
2020/12/28 01:31:31;;;;;;;1.10;1.00;;;6.70;84.80;;;;;;5006690;28;20214;-89
2020/12/28 01:33:56;;;;;;;1.00;1.00;;;6.70;84.60;;;;;;5005305;28;20198;-90
2020/12/28 01:36:22;;;;;;;0.87;0.87;;;6.70;84.60;;;;;;5019863;28;20226;-90
2020/12/28 01:38:48;;;;;;;1.10;1.10;;;6.70;84.90;;;;;;5008378;28;20209;-90
2020/12/28 01:41:16;;;;;;;1.03;0.93;;;6.70;85.70;;;;;;5024874;28;20210;-90
2020/12/28 01:43:42;;;;;;;0.87;0.87;;;6.70;84.40;;;;;;5024568;28;20631;-89
2020/12/28 01:46:10;;;;;;;1.03;1.00;;;6.70;84.30;;;;;;5024704;28;20217;-89
2020/12/28 01:48:36;;;;;;;0.83;0.83;;;6.70;85.80;;;;;;5025327;28;20217;-88
2020/12/28 01:51:05;;;;;;;0.90;0.80;;;6.60;86.10;;;;;;5025462;28;20186;-89
2020/12/28 01:53:41;;;;;;;1.03;1.00;;;6.70;84.80;;;;;;5018951;28;20186;-89
2020/12/28 01:56:07;;;;;;;1.10;1.00;;;6.70;85.30;;;;;;5004275;28;20705;-90
2020/12/28 01:58:33;;;;;;;1.03;1.00;;;6.70;86.30;;;;;;5004064;28;20245;-90
2020/12/28 02:00:59;;;;;;;1.00;1.00;;;6.70;86.60;;;;;;5005758;28;20224;-89
2020/12/28 02:03:37;;;;;;;0.80;0.80;;;6.60;85.60;;;;;;5004255;28;20265;-90
2020/12/28 02:06:05;;;;;;;1.10;1.10;;;6.60;85.00;;;;;;5003324;28;20171;-90
2020/12/28 02:08:31;;;;;;;1.33;1.23;;;6.60;86.20;;;;;;5004701;28;20201;-90
2020/12/28 02:10:59;;;;;;;0.93;0.93;;;6.60;86.30;;;;;;5003906;28;20191;-90
2020/12/28 02:13:25;;;;;;;1.20;1.20;;;6.60;86.50;;;;;;4987107;28;20531;-91
2020/12/28 02:15:51;;;;;;;1.33;1.23;;;6.50;86.90;;;;;;5012914;28;20185;-90
2020/12/28 02:18:22;;;;;;;1.97;1.00;;;6.60;86.20;;;;;;5025331;28;20205;-89
2020/12/28 02:20:48;;;;;;;1.00;1.00;;;6.50;87.10;;;;;;5015020;28;20217;-89
2020/12/28 02:23:14;;;;;;;0.90;0.90;;;6.50;86.50;;;;;;5008760;28;20177;-89
2020/12/28 02:25:43;;;;;;;0.93;0.90;;;6.50;86.80;;;;;;5025835;28;20178;-89
2020/12/28 02:28:08;;;;;;;1.30;1.10;;;6.50;88.10;;;;;;5008586;28;20241;-90
2020/12/28 02:30:39;;;;;;;1.83;1.00;;;6.40;87.90;;;;;;5004974;28;20209;-89
2020/12/28 02:33:05;;;;;;;1.07;1.07;;;6.50;88.70;;;;;;5004762;28;20186;-89
2020/12/28 02:35:30;;;;;;;1.07;0.97;;;6.40;88.70;;;;;;5005778;28;20181;-89
2020/12/28 02:37:56;;;;;;;0.80;0.80;;;6.40;88.20;;;;;;5018096;28;20228;-89
2020/12/28 02:40:22;;;;;;;1.00;1.00;;;6.50;87.70;;;;;;5025261;28;20182;-89
2020/12/28 02:42:48;;;;;;;1.03;1.03;;;6.40;88.50;;;;;;5006895;28;20281;-90
2020/12/28 02:45:14;;;;;;;1.53;1.07;;;6.40;88.40;;;;;;5024344;28;20178;-89
2020/12/28 02:47:39;;;;;;;1.03;0.97;;;6.40;88.80;;;;;;5023752;28;20611;-90
2020/12/28 02:50:17;;;;;;;1.23;1.10;;;6.40;88.90;;;;;;5023557;28;20564;-89
2020/12/28 02:52:44;;;;;;;1.00;1.00;;;6.50;89.00;;;;;;5025468;28;20169;-89
2020/12/28 02:55:13;;;;;;;1.30;1.20;;;6.40;87.80;;;;;;5024962;28;20178;-89
2020/12/28 02:57:39;;;;;;;1.80;0.90;;;6.40;89.70;;;;;;5023988;28;20177;-89
2020/12/28 03:00:05;;;;;;;0.90;0.90;;;6.40;88.80;;;;;;5023886;28;20206;-90
2020/12/28 03:02:34;;;;;;;0.93;0.93;;;6.40;89.60;;;;;;5007713;28;20219;-90
2020/12/28 03:04:59;;;;;;;1.00;1.00;;;6.40;89.90;;;;;;5023857;28;20178;-89
2020/12/28 03:07:25;;;;;;;1.03;1.03;;;6.50;89.40;;;;;;5012858;28;20183;-90
2020/12/28 03:09:52;;;;;;;1.30;1.20;;;6.40;89.70;;;;;;5003100;28;20661;-90
2020/12/28 03:12:18;;;;;;;1.53;1.00;;;6.40;89.60;;;;;;5003900;28;20273;-89
2020/12/28 03:14:44;;;;;;;1.97;0.90;;;6.40;90.40;;;;;;5004574;28;20205;-89
2020/12/28 03:17:09;;;;;;;1.00;1.00;;;6.30;89.50;;;;;;5004932;28;20248;-90
2020/12/28 03:19:35;;;;;;;1.40;1.03;;;6.30;89.80;;;;;;5004013;28;20351;-89
2020/12/28 03:22:01;;;;;;;0.90;0.90;;;6.30;89.60;;;;;;5003522;28;20221;-89
2020/12/28 03:24:26;;;;;;;1.43;1.00;;;6.30;91.10;;;;;;5004457;28;20190;-90
2020/12/28 03:26:52;;;;;;;0.80;0.80;;;6.30;90.40;;;;;;5002568;28;20194;-89
2020/12/28 03:29:20;;;;;;;1.10;1.10;;;6.30;90.80;;;;;;5004731;28;20278;-88
2020/12/28 03:31:49;;;;;;;0.90;0.90;;;6.40;90.40;;;;;;4989980;28;20213;-90
2020/12/28 03:34:15;;;;;;;1.20;1.10;;;6.40;90.40;;;;;;5006556;28;20182;-89
2020/12/28 03:36:40;;;;;;;1.00;1.00;;;6.30;90.70;;;;;;5003919;28;20217;-89
2020/12/28 03:39:06;;;;;;;1.20;1.20;;;6.30;91.50;;;;;;5003890;28;20313;-89
2020/12/28 03:41:35;;;;;;;2.00;1.00;;;6.30;92.50;;;;;;5005011;28;20736;-88
2020/12/28 03:44:00;;;;;;;0.80;0.80;;;6.20;92.30;;;;;;5005148;28;20260;-89
2020/12/28 03:46:26;;;;;;;1.27;0.80;;;6.20;91.50;;;;;;5005305;28;20187;-89
2020/12/28 03:48:52;;;;;;;1.10;1.10;;;6.40;90.10;;;;;;5003799;28;20221;-89
2020/12/28 03:51:17;;;;;;;1.27;1.17;;;6.30;91.30;;;;;;5003872;28;20253;-89
2020/12/28 03:53:43;;;;;;;2.23;0.93;;;6.30;91.70;;;;;;5004252;28;20233;-90
2020/12/28 03:56:08;;;;;;;0.97;0.97;;;6.30;92.30;;;;;;5005535;28;20194;-90
2020/12/28 03:58:34;;;;;;;1.93;1.10;;;6.20;92.40;;;;;;5003907;28;20210;-89
2020/12/28 04:01:00;;;;;;;1.23;1.00;;;6.30;92.30;;;;;;5004379;28;20210;-89
2020/12/28 04:03:25;;;;;;;1.60;1.00;;;6.20;92.00;;;;;;4987916;28;20194;-89
2020/12/28 04:05:51;;;;;;;0.90;0.90;;;6.10;92.90;;;;;;5004775;28;20179;-89
2020/12/28 04:08:17;;;;;;;1.00;1.00;;;6.10;94.10;;;;;;5003721;28;20237;-89
2020/12/28 04:10:43;;;;;;;1.23;1.10;;;6.10;94.20;;;;;;5005216;28;20299;-89
2020/12/28 04:13:09;;;;;;;1.40;1.23;;;6.30;91.80;;;;;;5004788;28;20676;-89
2020/12/28 04:15:35;;;;;;;0.90;0.90;;;6.30;92.00;;;;;;5004686;28;20186;-89
2020/12/28 04:18:00;;;;;;;1.10;1.10;;;6.20;92.10;;;;;;4987595;28;20221;-89
2020/12/28 04:20:26;;;;;;;0.97;0.97;;;6.30;91.30;;;;;;5004843;28;20187;-89
2020/12/28 04:22:52;;;;;;;1.20;1.10;;;6.20;92.30;;;;;;4989830;28;20183;-90
2020/12/28 04:25:17;;;;;;;1.70;1.13;;;6.10;92.80;;;;;;5007916;28;20193;-89
2020/12/28 04:27:43;;;;;;;0.97;0.97;;;6.20;92.10;;;;;;5008844;28;20189;-90
2020/12/28 04:30:09;;;;;;;0.90;0.90;;;6.10;91.90;;;;;;5007863;28;20669;-89
2020/12/28 04:32:35;;;;;;;1.37;1.27;;;6.20;91.50;;;;;;5008682;28;20614;-89
2020/12/28 04:35:01;;;;;;;2.20;1.30;;;6.20;91.90;;;;;;5009404;28;20237;-90
2020/12/28 04:37:27;;;;;;;1.00;0.90;;;6.20;91.50;;;;;;5007202;28;20637;-89
2020/12/28 04:39:53;;;;;;;1.43;1.33;;;6.30;91.20;;;;;;5007444;28;20198;-89
2020/12/28 04:42:29;;;;;;;2.07;1.30;;;6.30;91.30;;;;;;5008148;28;20210;-90
2020/12/28 04:44:55;;;;;;;1.20;1.10;;;6.40;90.30;;;;;;5009100;28;20228;-90
2020/12/28 04:47:21;;;;;;;1.10;1.10;;;6.30;90.70;;;;;;5007201;28;20358;-90
2020/12/28 04:49:48;;;;;;;1.30;0.93;;;6.30;90.50;;;;;;5007396;28;20713;-89
2020/12/28 04:52:15;;;;;;;1.20;1.20;;;6.20;91.60;;;;;;4990443;28;20189;-89
2020/12/28 04:54:41;;;;;;;0.93;0.93;;;6.30;91.30;;;;;;5007824;28;20186;-89
2020/12/28 04:57:08;;;;;;;1.17;1.17;;;6.30;91.20;;;;;;5007808;28;20272;-90
2020/12/28 04:59:34;;;;;;;1.00;1.00;;;6.40;89.40;;;;;;5007888;28;20262;-89
2020/12/28 05:01:59;;;;;;;2.10;1.30;;;6.30;89.10;;;;;;5008182;28;20245;-89
2020/12/28 05:04:25;;;;;;;1.03;1.03;;;6.30;89.90;;;;;;5006656;28;20210;-89
2020/12/28 05:07:09;;;;;;;1.10;1.10;;;6.20;90.00;;;;;;5011801;28;20182;-90
2020/12/28 05:09:35;;;;;;;1.07;1.07;;;6.10;90.20;;;;;;5027983;28;20202;-89
2020/12/28 05:12:03;;;;;;;2.03;1.93;;;6.10;90.30;;;;;;5028018;28;20182;-89
2020/12/28 05:14:29;;;;;;;1.00;1.00;;;6.20;89.70;;;;;;5028134;28;20240;-89
2020/12/28 05:17:05;;;;;;;1.10;1.10;;;6.10;90.30;;;;;;5026488;28;20186;-89
2020/12/28 05:19:33;;;;;;;1.03;1.03;;;6.20;89.40;;;;;;5026531;28;20204;-89
2020/12/28 05:21:59;;;;;;;2.67;1.23;;;6.10;89.20;;;;;;5026994;28;20218;-90
2020/12/28 05:24:25;;;;;;;1.40;1.20;;;6.10;89.10;;;;;;5027909;28;20653;-90
2020/12/28 05:26:51;;;;;;;0.93;0.93;;;6.30;89.10;;;;;;5026408;28;20178;-90
2020/12/28 05:29:20;;;;;;;1.20;1.17;;;6.20;88.40;;;;;;5009727;28;20271;-90
2020/12/28 05:31:46;;;;;;;1.00;1.00;;;6.20;88.80;;;;;;5027354;28;20196;-90
2020/12/28 05:34:18;;;;;;;0.80;0.80;;;6.20;88.60;;;;;;5027041;28;20182;-90
2020/12/28 05:36:52;;;;;;;1.73;1.63;;;6.20;89.80;;;;;;5026374;28;20257;-90
2020/12/28 05:39:24;;;;;;;1.97;1.67;;;6.20;90.70;;;;;;5028047;28;20201;-90
2020/12/28 05:41:57;;;;;;;1.47;1.37;;;6.20;90.60;;;;;;5027544;28;20220;-89
2020/12/28 05:44:24;;;;;;;1.60;1.50;;;6.20;90.00;;;;;;5025626;28;20166;-90
2020/12/28 05:47:02;;;;;;;2.20;1.73;;;6.30;90.30;;;;;;5025143;28;20239;-90
2020/12/28 05:49:49;;;;;;;2.47;1.93;;;6.30;90.50;;;;;;5006662;28;20589;-90
2020/12/28 05:52:16;;;;;;;2.60;2.00;;;6.40;90.40;;;;;;5005980;28;20190;-91
2020/12/28 05:54:42;;;;;;;2.40;2.20;;;6.50;90.00;;;;;;5006938;28;20668;-90
2020/12/28 05:57:09;;;;;;;3.37;2.37;;;6.50;89.50;;;;;;5007520;28;20254;-90
2020/12/28 05:59:37;;;;;;;2.57;2.17;;;6.50;88.80;;;;;;5006899;28;20203;-89
2020/12/28 06:02:06;;;;;;;2.83;2.40;;;6.40;89.30;;;;;;4988787;28;20268;-89
2020/12/28 06:04:32;;;;;;;2.30;2.10;;;6.50;89.30;;;;;;5006551;28;20265;-89
2020/12/28 06:07:00;;;;;;;2.70;2.20;;;6.50;89.20;;;;;;5006885;28;20201;-89
2020/12/28 06:09:27;;;;;;;1.80;1.70;;;6.60;88.80;;;;;;5006527;28;20203;-89
2020/12/28 06:12:10;;;;;;;2.00;1.90;;;6.60;89.10;;;;;;5019644;28;20170;-90
2020/12/28 06:14:38;;;;;;;2.70;2.03;;;6.60;89.40;;;;;;5026765;28;20174;-89
2020/12/28 06:17:08;;;;;;;1.60;1.50;;;6.60;89.60;;;;;;5026336;28;20184;-89
2020/12/28 06:19:35;;;;;;;1.70;1.60;;;6.60;89.50;;;;;;5025844;28;20676;-89
2020/12/28 06:22:01;;;;;;;4.30;3.83;;;6.60;89.50;;;;;;4995910;28;20221;-89
2020/12/28 06:24:30;;;;;;;5.77;3.53;;;6.60;89.70;;;;;;4989350;28;20181;-89
2020/12/28 06:27:04;;;;;;;4.60;4.20;;;6.50;90.00;;;;;;5006726;28;20198;-90
2020/12/28 06:29:31;;;;;;;4.93;3.67;;;6.60;89.20;;;;;;5006588;28;20193;-90
2020/12/28 06:31:56;;;;;;;3.93;3.00;;;6.60;88.90;;;;;;5005956;28;20217;-89
2020/12/28 06:34:22;;;;;;;2.10;1.90;;;6.60;89.00;;;;;;5006644;28;20179;-89
2020/12/28 06:37:01;;;;;;;2.10;1.90;;;6.50;88.20;;;;;;5007043;28;20182;-89
2020/12/28 06:39:28;;;;;;;2.53;2.33;;;6.40;89.80;;;;;;5005713;28;20210;-89
2020/12/28 06:41:54;;;;;;;2.50;2.30;;;6.20;90.70;;;;;;5005689;28;20206;-90
2020/12/28 06:44:26;;;;;;;2.13;1.97;;;6.20;91.20;;;;;;5006197;28;20209;-89
2020/12/28 06:46:53;;;;;;;2.40;2.20;;;6.10;91.50;;;;;;5005999;28;20186;-89
2020/12/28 06:49:19;;;;;;;2.40;2.20;;;6.10;91.80;;;;;;5003906;28;20214;-90
2020/12/28 06:51:45;;;;;;;2.20;2.10;;;6.10;91.90;;;;;;5005507;28;20182;-89
2020/12/28 06:54:11;;;;;;;2.90;2.60;;;6.20;92.50;;;;;;5005602;28;20206;-89
2020/12/28 06:56:36;;;;;;;2.97;2.77;;;6.20;91.80;;;;;;5006407;28;20705;-89
2020/12/28 06:59:02;;;;;;;2.73;2.53;;;6.20;91.50;;;;;;5005248;28;20210;-90
2020/12/28 07:01:29;;;;;;;3.20;2.73;;;6.10;92.30;;;;;;5005262;28;20206;-89
2020/12/28 07:03:55;;;;;;;2.00;1.90;;;6.20;92.20;;;;;;5006911;28;20183;-89
2020/12/28 07:06:21;;;;;;;3.23;1.97;;;6.40;90.20;;;;;;5007132;28;20209;-89
2020/12/28 07:08:47;;;;;;;2.60;2.00;;;6.40;90.40;;;;;;5025530;28;20224;-89
2020/12/28 07:11:18;;;;;;;2.20;2.10;;;6.30;92.20;;;;;;5026395;28;20185;-89
2020/12/28 07:13:47;;;;;;;1.83;1.73;;;6.20;92.70;;;;;;5025541;28;20185;-90
2020/12/28 07:16:13;;;;;;;2.53;2.13;;;6.30;92.90;;;;;;5025869;28;20186;-89
2020/12/28 07:18:39;;;;;;;2.20;2.00;;;6.30;93.50;;;;;;5023822;28;20722;-89
2020/12/28 07:21:06;;;;;;;2.27;2.07;;;6.30;92.90;;;;;;5025016;28;20209;-89
2020/12/28 07:23:33;;;;;;;3.80;3.03;;;6.30;93.10;;;;;;5023115;28;20202;-89
2020/12/28 07:26:12;;;;;;;4.10;3.63;;;6.30;93.50;;;;;;5024826;28;20186;-89
2020/12/28 07:28:40;;;;;;;5.30;4.37;;;6.30;93.90;;;;;;5025878;28;20217;-89
2020/12/28 07:31:06;;;;;;;2.60;2.40;;;6.30;94.20;;;;;;5026470;28;20189;-90
2020/12/28 07:33:33;;;;;;;2.13;1.97;;;6.30;92.90;;;;;;5023545;28;20190;-88
2020/12/28 07:36:08;;;;;;;2.63;2.20;;;6.30;93.40;;;;;;5023030;28;20201;-89
2020/12/28 07:38:34;;;;;;;2.40;2.20;;;6.30;92.60;;;;;;5020860;28;20329;-88
2020/12/28 07:41:00;;;;;;;2.60;2.40;;;6.30;92.30;;;;;;5015756;28;20219;-88
2020/12/28 07:43:30;;;;;;;3.63;2.23;;;6.30;92.10;;;;;;5019048;28;20261;-88
2020/12/28 07:46:21;;;;;;;2.50;2.30;;;6.40;92.20;;;;;;5020664;28;20243;-88
2020/12/28 07:48:51;;;;;;;2.40;2.20;;;6.40;91.60;;;;;;4998792;28;20299;-88
2020/12/28 07:51:18;;;;;;;2.67;2.47;;;6.40;91.20;;;;;;5018764;28;20204;-88
2020/12/28 07:53:49;;;;;;;2.53;2.33;;;6.50;91.20;;;;;;5018100;28;20178;-90
2020/12/28 07:56:39;;;;;;;3.27;2.80;;;6.40;90.80;;;;;;5022915;28;20176;-90
2020/12/28 07:59:27;;;;;;;2.37;1.93;;;6.50;91.10;;;;;;5026770;28;20724;-89
2020/12/28 08:01:55;;;;;;;1.90;1.60;;;6.50;90.40;;;;;;5013901;28;20237;-89
2020/12/28 08:04:25;;;;;;;2.40;2.00;;;6.40;90.30;;;;;;5022494;28;20276;-90
2020/12/28 08:06:55;;;;;;;2.90;1.70;;;6.40;91.60;;;;;;5013062;28;20182;-89
2020/12/28 08:09:22;;;;;;;1.47;1.37;;;6.40;90.30;;;;;;5014227;28;20209;-89
2020/12/28 08:12:02;;;;;;;2.33;1.83;;;6.50;90.20;;;;;;5026889;28;20193;-89
2020/12/28 08:14:28;;;;;;;2.63;2.00;;;6.50;90.30;;;;;;5016655;28;20197;-88
2020/12/28 08:16:54;;;;;;;1.83;1.70;;;6.50;89.90;;;;;;5002633;28;20205;-86
2020/12/28 08:19:27;;;;;;;2.40;2.20;;;6.50;89.80;;;;;;5005940;28;20692;-86
2020/12/28 08:21:52;;;;;;;2.83;2.60;;;6.50;89.30;;;;;;5007322;28;20202;-86
2020/12/28 08:24:19;;;;;;;3.87;3.47;;;6.50;90.00;;;;;;5007637;28;20189;-86
2020/12/28 08:26:46;;;;;;;2.40;2.20;;;6.50;89.40;;;;;;5016419;28;20234;-86
2020/12/28 08:29:13;;;;;;;2.43;1.87;;;6.50;89.70;;;;;;5024220;28;20242;-87
2020/12/28 08:31:39;;;;;;;2.70;2.10;;;6.50;89.40;;;;;;5025210;28;20200;-89
2020/12/28 08:34:09;;;;;;;3.33;2.97;;;6.50;89.20;;;;;;5021232;28;20174;-89
2020/12/28 08:36:54;;;;;;;3.00;2.70;;;6.50;89.30;;;;;;5013242;28;20204;-89
2020/12/28 08:39:25;;;;;;;4.40;4.00;;;6.40;90.50;;;;;;5027412;28;20221;-89
2020/12/28 08:41:59;;;;;;;3.03;2.70;;;6.40;91.20;;;;;;5027584;28;20270;-89
2020/12/28 08:44:32;;;;;;;3.90;2.60;;;6.40;91.20;;;;;;5026975;28;20189;-89
2020/12/28 08:46:59;;;;;;;2.60;2.30;;;6.50;91.20;;;;;;5028585;28;20170;-89
2020/12/28 08:49:26;;;;;;;4.93;3.20;;;6.50;90.80;;;;;;5028392;28;20228;-90
2020/12/28 08:51:53;;;;;;;4.10;3.47;;;6.50;90.40;;;;;;5028166;28;20173;-89
2020/12/28 08:54:28;;;;;;;4.40;3.77;;;6.50;90.60;;;;;;5028196;28;20273;-90
2020/12/28 08:56:54;;;;;;;4.40;4.00;;;6.50;90.60;;;;;;5027566;28;20721;-90
2020/12/28 08:59:20;;;;;;;3.20;2.90;;;6.50;89.60;;;;;;5026523;28;20217;-89
2020/12/28 09:01:53;;;;;;;3.27;2.90;;;6.50;90.00;;;;;;5027799;28;20213;-89
2020/12/28 09:04:20;;;;;;;3.07;2.80;;;6.50;89.80;;;;;;5010468;28;20186;-91
2020/12/28 09:06:45;;;;;;;2.67;2.47;;;6.50;90.10;;;;;;5009956;28;20462;-90
2020/12/28 09:09:13;;;;;;;2.80;2.50;;;6.50;89.80;;;;;;5014167;28;20279;-88
2020/12/28 09:11:43;;;;;;;3.53;3.00;;;6.50;89.40;;;;;;5012099;28;20548;-89
2020/12/28 09:14:09;;;;;;;2.70;2.43;;;6.40;89.80;;;;;;5010144;28;20234;-90
2020/12/28 09:16:35;;;;;;;3.23;2.20;;;6.50;89.60;;;;;;5020054;28;20538;-89
2020/12/28 09:19:01;;;;;;;4.87;3.93;;;6.60;88.20;;;;;;5012613;28;20214;-89
2020/12/28 09:21:27;;;;;;;4.57;2.90;;;6.70;88.10;;;;;;5013296;28;20210;-89
2020/12/28 09:23:53;;;;;;;3.17;2.47;;;6.70;88.50;;;;;;5018091;28;20182;-88
2020/12/28 09:26:19;;;;;;;2.97;2.27;;;6.60;88.20;;;;;;5008433;28;20186;-89
2020/12/28 09:28:45;;;;;;;2.33;1.90;;;6.70;88.50;;;;;;5009988;28;20265;-89
2020/12/28 09:31:10;;;;;;;4.03;3.63;;;6.70;87.70;;;;;;5028223;28;20192;-89
2020/12/28 09:33:36;;;;;;;2.50;2.30;;;6.70;88.10;;;;;;5025194;28;20186;-90
2020/12/28 09:36:03;;;;;;;2.07;1.97;;;6.70;88.50;;;;;;5026416;28;20245;-90
2020/12/28 09:38:28;;;;;;;2.80;2.00;;;6.70;89.10;;;;;;5016866;28;20233;-90
2020/12/28 09:40:54;;;;;;;2.13;1.87;;;6.80;88.80;;;;;;5008554;28;20210;-90
2020/12/28 09:43:20;;;;;;;2.57;2.30;;;6.70;88.70;;;;;;5006317;28;20205;-89
2020/12/28 09:45:47;;;;;;;3.10;2.23;;;6.80;88.90;;;;;;5016180;28;20178;-89
2020/12/28 09:48:13;;;;;;;2.40;2.20;;;6.80;89.70;;;;;;5024838;28;20236;-90
2020/12/28 09:50:39;;;;;;;2.40;2.20;;;6.80;89.00;;;;;;5016649;28;20178;-89
2020/12/28 09:53:06;;;;;;;3.33;2.63;;;6.80;89.10;;;;;;5010023;28;20200;-91
2020/12/28 09:55:33;;;;;;;3.20;2.70;;;7.00;89.20;;;;;;5008002;28;20190;-90
2020/12/28 09:57:58;;;;;;;3.83;3.13;;;7.00;89.30;;;;;;5008347;28;20394;-90
2020/12/28 10:00:24;;;;;;;3.53;3.10;;;7.00;88.80;;;;;;5007046;28;20182;-91
2020/12/28 10:02:50;;;;;;;4.50;3.27;;;7.00;89.10;;;;;;5007232;28;20194;-90
2020/12/28 10:05:16;;;;;;;4.50;4.10;;;7.00;89.10;;;;;;5005240;28;20179;-90
2020/12/28 10:07:43;;;;;;;6.17;5.50;;;7.10;87.50;;;;;;5007256;28;20262;-90
2020/12/28 10:10:08;;;;;;;3.03;2.83;;;7.20;86.50;;;;;;4988857;28;20222;-90
2020/12/28 10:12:36;;;;;;;2.30;2.10;;;7.30;85.70;;;;;;5007128;28;20576;-89
2020/12/28 10:15:03;;;;;;;2.67;2.00;;;7.30;85.80;;;;;;5007060;28;20166;-89
2020/12/28 10:17:29;;;;;;;5.60;4.73;;;7.30;85.40;;;;;;5005148;28;20240;-89
2020/12/28 10:19:55;;;;;;;19.07;14.57;;;7.20;87.10;;;;;;5004817;28;20238;-90
2020/12/28 10:22:21;;;;;;;6.73;4.10;;;7.20;87.70;;;;;;5006454;28;20241;-90
2020/12/28 10:24:47;;;;;;;3.07;2.80;;;7.20;88.30;;;;;;4999642;28;20286;-89
2020/12/28 10:27:12;;;;;;;2.97;2.67;;;7.20;88.40;;;;;;5004729;28;20191;-89
2020/12/28 10:29:38;;;;;;;2.73;2.30;;;7.30;86.70;;;;;;5013262;28;20204;-88
2020/12/28 10:32:04;;;;;;;3.03;2.73;;;7.40;85.50;;;;;;5025151;28;20181;-88
2020/12/28 10:34:30;;;;;;;3.40;2.57;;;7.40;87.10;;;;;;5014889;28;20192;-89
2020/12/28 10:36:55;;;;;;;3.80;3.27;;;7.30;86.80;;;;;;5025761;28;20245;-89
2020/12/28 10:39:21;;;;;;;4.00;3.57;;;7.40;87.30;;;;;;5013363;28;20252;-88
2020/12/28 10:41:54;;;;;;;5.70;4.93;;;7.40;86.90;;;;;;5016281;28;20526;-89
2020/12/28 10:44:21;;;;;;;8.37;6.53;;;7.40;88.00;;;;;;5016932;28;20194;-89
2020/12/28 10:46:47;;;;;;;7.73;6.97;;;7.50;88.30;;;;;;4996894;28;20221;-89
2020/12/28 10:49:13;;;;;;;7.33;6.10;;;7.50;88.70;;;;;;4970337;28;20207;-88
2020/12/28 10:51:38;;;;;;;6.03;3.93;;;7.50;88.40;;;;;;4977801;28;20186;-91
2020/12/28 10:54:04;;;;;;;3.67;3.37;;;7.60;87.60;;;;;;4971898;28;20195;-89
2020/12/28 10:56:31;;;;;;;4.37;3.50;;;7.60;85.90;;;;;;4993640;28;20538;-90
2020/12/28 10:58:58;;;;;;;10.30;6.97;;;7.60;86.00;;;;;;4995272;28;20210;-89
2020/12/28 11:01:25;;;;;;;6.33;3.80;;;7.60;86.50;;;;;;4992310;28;20268;-90
2020/12/28 11:03:52;;;;;;;5.63;3.40;;;7.60;85.90;;;;;;4975220;28;20281;-89
2020/12/28 11:06:19;;;;;;;4.10;3.30;;;7.70;86.00;;;;;;4978763;28;20183;-89
2020/12/28 11:08:45;;;;;;;5.60;3.33;;;7.60;87.00;;;;;;4974505;28;20245;-89
2020/12/28 11:11:11;;;;;;;7.07;4.40;;;7.80;85.80;;;;;;4978996;28;20187;-90
2020/12/28 11:13:37;;;;;;;6.87;4.97;;;7.80;85.50;;;;;;4986634;28;20191;-90
2020/12/28 11:16:03;;;;;;;5.33;4.20;;;7.70;85.90;;;;;;4986739;28;20182;-89
2020/12/28 11:18:29;;;;;;;5.47;3.90;;;7.80;85.60;;;;;;4988509;28;20261;-89
2020/12/28 11:20:54;;;;;;;4.47;4.07;;;7.80;85.70;;;;;;5000460;28;20258;-89
2020/12/28 11:23:20;;;;;;;5.03;4.20;;;7.80;84.60;;;;;;5047612;28;20192;-90
2020/12/28 11:25:46;;;;;;;3.43;2.90;;;7.80;84.80;;;;;;5080919;28;20238;-89
2020/12/28 11:28:11;;;;;;;3.97;3.60;;;7.80;86.20;;;;;;5080792;28;20210;-89
2020/12/28 11:30:37;;;;;;;4.03;3.73;;;7.80;88.80;;;;;;5065360;28;20242;-90
2020/12/28 11:33:03;;;;;;;4.90;4.60;;;7.70;90.30;;;;;;4984602;28;20539;-90
2020/12/28 11:35:30;;;;;;;4.93;4.50;;;7.70;90.20;;;;;;4984885;28;20174;-90
2020/12/28 11:37:56;;;;;;;4.17;3.87;;;7.80;91.20;;;;;;4988621;28;20285;-90
2020/12/28 11:40:23;;;;;;;3.00;2.80;;;7.70;90.90;;;;;;5069296;28;20243;-90
2020/12/28 11:42:49;;;;;;;6.13;5.63;;;7.50;90.40;;;;;;4987986;28;20211;-89
2020/12/28 11:45:14;;;;;;;3.27;2.83;;;7.40;91.60;;;;;;4989889;28;20195;-89
2020/12/28 11:47:40;;;;;;;2.70;2.47;;;7.10;87.60;;;;;;4971136;28;20175;-89
2020/12/28 11:50:07;;;;;;;2.43;2.23;;;6.80;90.00;;;;;;4988210;28;20206;-89
2020/12/28 11:52:33;;;;;;;2.03;1.60;;;6.50;88.80;;;;;;4971440;28;20184;-90
2020/12/28 11:54:59;;;;;;;1.73;1.60;;;6.30;91.20;;;;;;4978517;28;20202;-90
2020/12/28 11:57:24;;;;;;;1.87;1.70;;;6.00;92.00;;;;;;5053249;28;20501;-91
2020/12/28 11:59:50;;;;;;;1.50;1.40;;;5.70;94.70;;;;;;4968285;28;20234;-90
2020/12/28 12:02:19;;;;;;;0.90;0.90;;;5.60;94.50;;;;;;4987130;28;20194;-90
2020/12/28 12:04:51;;;;;;;0.80;0.80;;;5.20;91.90;;;;;;4970407;28;20207;-89
2020/12/28 12:07:23;;;;;;;0.73;0.73;;;4.90;94.10;;;;;;4984393;28;20206;-90
2020/12/28 12:09:50;;;;;;;0.97;0.97;;;4.60;94.30;;;;;;4947068;29;20217;-90
2020/12/28 12:12:16;;;;;;;0.90;0.90;;;4.50;96.90;;;;;;4966311;28;20215;-90
2020/12/28 12:14:42;;;;;;;0.67;0.60;;;4.60;97.90;;;;;;4997067;28;20218;-91
2020/12/28 12:17:08;;;;;;;1.30;1.20;;;4.60;97.40;;;;;;4973559;28;20218;-91
2020/12/28 12:19:35;;;;;;;1.20;1.10;;;4.60;97.90;;;;;;4973847;28;20206;-91
2020/12/28 12:22:01;;;;;;;1.40;1.30;;;4.60;98.80;;;;;;4959456;28;20700;-90
2020/12/28 12:24:26;;;;;;;1.80;1.67;;;4.70;98.60;;;;;;4973939;28;20179;-90
2020/12/28 12:26:52;;;;;;;1.93;1.80;;;4.80;97.80;;;;;;4971557;28;20183;-90
2020/12/28 12:29:18;;;;;;;1.93;1.73;;;4.90;98.10;;;;;;4993788;28;20340;-90
2020/12/28 12:31:44;;;;;;;2.03;1.80;;;5.00;97.70;;;;;;4963774;28;20266;-91
2020/12/28 12:34:12;;;;;;;2.80;2.30;;;5.10;98.00;;;;;;4983769;28;20539;-90
2020/12/28 12:36:38;;;;;;;3.90;3.40;;;5.10;98.20;;;;;;5005294;28;20183;-90
2020/12/28 12:39:04;;;;;;;8.13;6.83;;;5.10;98.50;;;;;;4980819;28;20279;-90
2020/12/28 12:41:30;;;;;;;2.17;1.97;;;5.10;98.80;;;;;;4981376;28;20799;-89
2020/12/28 12:44:22;;;;;;;2.70;2.40;;;5.20;98.20;;;;;;4966505;28;20286;-88
2020/12/28 12:46:48;;;;;;;2.30;2.10;;;5.10;97.90;;;;;;4972968;28;20160;-90
2020/12/28 12:49:13;;;;;;;2.40;2.20;;;5.20;98.50;;;;;;4991826;28;20246;-89
2020/12/28 12:51:39;;;;;;;3.27;2.20;;;5.30;97.90;;;;;;4956606;28;20220;-90
2020/12/28 12:54:05;;;;;;;1.70;1.60;;;5.40;98.40;;;;;;4963414;28;20199;-90
2020/12/28 12:56:30;;;;;;;1.93;1.70;;;5.30;97.40;;;;;;5007454;28;20205;-89
2020/12/28 12:58:56;;;;;;;1.40;1.30;;;5.40;97.80;;;;;;4983073;28;20226;-91